createdAt,value
2023-02-21T00:00:53.310Z,8.25
2023-02-21T00:03:38.576Z,8.24
2023-02-21T00:06:28.047Z,8.25
2023-02-21T00:09:13.370Z,8.24
2023-02-21T00:12:03.684Z,8.24
2023-02-21T00:14:49.132Z,8.25
2023-02-21T00:17:34.947Z,8.23
2023-02-21T00:20:20.691Z,8.20
2023-02-21T00:23:05.890Z,8.18
2023-02-21T00:25:51.002Z,8.17
2023-02-21T00:28:36.913Z,8.16
2023-02-21T00:31:23.539Z,8.19
2023-02-21T00:34:10.185Z,8.21
2023-02-21T00:36:55.368Z,8.22
2023-02-21T00:39:40.667Z,8.20
2023-02-21T00:42:26.034Z,8.20
2023-02-21T00:45:11.383Z,8.17
2023-02-21T00:47:56.609Z,8.17
2023-02-21T00:50:41.831Z,8.17
2023-02-21T00:53:27.518Z,8.14
2023-02-21T00:56:13.297Z,8.13
2023-02-21T00:58:58.735Z,8.12
2023-02-21T01:01:43.981Z,8.08
2023-02-21T01:04:29.351Z,8.07
2023-02-21T01:07:14.876Z,8.05
2023-02-21T01:10:01.104Z,8.02
2023-02-21T01:12:46.235Z,7.99
2023-02-21T01:15:33.020Z,7.96
2023-02-21T01:18:18.345Z,7.97
2023-02-21T01:21:03.652Z,7.98
2023-02-21T01:23:50.378Z,7.97
2023-02-21T01:26:36.308Z,7.98
2023-02-21T01:29:22.163Z,7.97
2023-02-21T01:32:08.887Z,7.97
2023-02-21T01:34:54.371Z,7.95
2023-02-21T01:37:39.598Z,7.94
2023-02-21T01:40:25.356Z,7.93
2023-02-21T01:43:10.464Z,7.93
2023-02-21T01:45:55.871Z,7.96
2023-02-21T01:48:44.638Z,7.94
2023-02-21T01:51:35.414Z,7.95
2023-02-21T01:54:23.077Z,7.92
2023-02-21T01:57:09.885Z,7.94
2023-02-21T01:59:56.400Z,7.94
2023-02-21T02:02:56.842Z,7.94
2023-02-21T02:05:45.160Z,7.93
2023-02-21T02:08:31.104Z,7.93
2023-02-21T02:12:19.581Z,7.93
2023-02-21T02:15:35.751Z,7.90
2023-02-21T02:18:40.860Z,7.88
2023-02-21T02:21:24.953Z,7.87
2023-02-21T02:24:05.544Z,7.85
2023-02-21T02:27:10.988Z,7.84
2023-02-21T02:30:01.947Z,7.83
2023-02-21T02:33:01.800Z,7.83
2023-02-21T02:35:35.621Z,7.84
2023-02-21T02:38:31.974Z,7.81
2023-02-21T02:41:34.488Z,7.81
2023-02-21T02:44:31.853Z,7.82
2023-02-21T02:47:04.491Z,7.83
2023-02-21T02:49:38.753Z,7.85
2023-02-21T02:52:09.364Z,7.85
2023-02-21T02:54:37.266Z,7.88
2023-02-21T02:57:10.764Z,7.86
2023-02-21T02:59:45.942Z,7.85
2023-02-21T03:02:43.347Z,7.86
2023-02-21T03:05:39.987Z,7.84
2023-02-21T03:08:42.323Z,7.83
2023-02-21T03:11:20.552Z,7.83
2023-02-21T03:14:17.381Z,7.85
2023-02-21T03:16:54.332Z,7.85
2023-02-21T03:19:31.023Z,7.84
2023-02-21T03:22:05.552Z,7.84
2023-02-21T03:24:37.029Z,7.84
2023-02-21T03:27:08.156Z,7.85
2023-02-21T03:30:04.464Z,7.86
2023-02-21T03:32:33.057Z,7.87
2023-02-21T03:35:02.046Z,7.87
2023-02-21T03:37:44.894Z,7.89
2023-02-21T03:40:30.175Z,7.88
2023-02-21T03:43:01.783Z,7.85
2023-02-21T03:45:33.690Z,7.83
2023-02-21T03:48:17.747Z,7.81
2023-02-21T03:50:50.898Z,7.80
2023-02-21T03:53:18.920Z,7.78
2023-02-21T03:55:46.397Z,7.84
2023-02-21T03:58:19.330Z,7.89
2023-02-21T04:00:46.423Z,7.90
2023-02-21T04:03:14.149Z,7.91
2023-02-21T04:05:50.996Z,7.87
2023-02-21T04:08:18.209Z,7.86
2023-02-21T04:10:51.974Z,7.84
2023-02-21T04:13:23.649Z,7.83
2023-02-21T04:15:50.888Z,7.83
2023-02-21T04:18:17.733Z,7.85
2023-02-21T04:20:47.553Z,7.88
2023-02-21T04:23:22.431Z,7.88
2023-02-21T04:25:49.966Z,7.89
2023-02-21T04:28:23.914Z,7.89
2023-02-21T04:30:50.797Z,7.87
2023-02-21T04:33:17.839Z,7.85
2023-02-21T04:35:45.115Z,7.84
2023-02-21T04:38:22.749Z,7.79
2023-02-21T04:40:49.542Z,7.76
2023-02-21T04:43:16.508Z,7.75
2023-02-21T04:45:43.419Z,7.71
2023-02-21T04:48:10.239Z,7.71
2023-02-21T04:50:37.051Z,7.71
2023-02-21T04:53:03.830Z,7.74
2023-02-21T04:55:30.657Z,7.77
2023-02-21T04:57:57.426Z,7.76
2023-02-21T05:00:24.680Z,7.74
2023-02-21T05:02:51.510Z,7.71
2023-02-21T05:05:18.333Z,7.70
2023-02-21T05:07:45.322Z,7.70
2023-02-21T05:10:12.849Z,7.71
2023-02-21T05:12:39.984Z,7.74
2023-02-21T05:15:08.833Z,7.72
2023-02-21T05:17:35.745Z,7.71
2023-02-21T05:20:04.172Z,7.72
2023-02-21T05:22:31.054Z,7.74
2023-02-21T05:24:57.822Z,7.77
2023-02-21T05:27:25.348Z,7.77
2023-02-21T05:29:53.939Z,7.76
2023-02-21T05:32:22.733Z,7.72
2023-02-21T05:34:49.701Z,7.70
2023-02-21T05:37:21.200Z,7.69
2023-02-21T05:39:48.679Z,7.69
2023-02-21T05:42:15.479Z,7.68
2023-02-21T05:44:46.732Z,7.68
2023-02-21T05:47:15.188Z,7.68
2023-02-21T05:49:43.369Z,7.67
2023-02-21T05:52:16.375Z,7.67
2023-02-21T05:54:44.442Z,7.70
2023-02-21T05:57:11.412Z,7.69
2023-02-21T05:59:39.682Z,7.72
2023-02-21T06:02:06.513Z,7.75
2023-02-21T06:04:33.504Z,7.76
2023-02-21T06:07:00.330Z,7.75
2023-02-21T06:09:27.195Z,7.75
2023-02-21T06:11:57.320Z,7.77
2023-02-21T06:14:24.673Z,7.75
2023-02-21T06:16:51.851Z,7.76
2023-02-21T06:19:20.077Z,7.74
2023-02-21T06:21:47.331Z,7.72
2023-02-21T06:24:14.191Z,7.69
2023-02-21T06:26:42.379Z,7.64
2023-02-21T06:29:11.820Z,7.61
2023-02-21T06:31:38.768Z,7.60
2023-02-21T06:34:07.113Z,7.59
2023-02-21T06:36:33.972Z,7.54
2023-02-21T06:39:00.864Z,7.52
2023-02-21T06:41:31.063Z,7.49
2023-02-21T06:43:59.660Z,7.49
2023-02-21T06:46:30.143Z,7.46
2023-02-21T06:48:57.883Z,7.47
2023-02-21T06:51:29.497Z,7.45
2023-02-21T06:53:58.582Z,7.45
2023-02-21T06:56:27.001Z,7.41
2023-02-21T06:58:54.418Z,7.40
2023-02-21T07:01:23.830Z,7.37
2023-02-21T07:03:52.223Z,7.37
2023-02-21T07:06:18.972Z,7.37
2023-02-21T07:08:45.938Z,7.37
2023-02-21T07:11:15.561Z,7.40
2023-02-21T07:13:51.194Z,7.42
2023-02-21T07:16:19.112Z,7.43
2023-02-21T07:18:46.704Z,7.42
2023-02-21T07:21:15.703Z,7.43
2023-02-21T07:23:46.546Z,7.46
2023-02-21T07:26:15.180Z,7.47
2023-02-21T07:28:42.194Z,7.43
2023-02-21T07:31:10.942Z,7.46
2023-02-21T07:33:37.874Z,7.46
2023-02-21T07:36:05.154Z,7.46
2023-02-21T07:38:32.360Z,7.43
2023-02-21T07:41:03.875Z,7.44
2023-02-21T07:43:31.835Z,7.41
2023-02-21T07:45:58.811Z,7.41
2023-02-21T07:48:25.861Z,7.40
2023-02-21T07:50:52.741Z,7.40
2023-02-21T07:53:19.881Z,7.46
2023-02-21T07:55:46.737Z,7.50
2023-02-21T07:58:13.726Z,7.50
2023-02-21T08:00:40.819Z,7.50
2023-02-21T08:03:07.907Z,7.50
2023-02-21T08:05:34.732Z,7.53
2023-02-21T08:08:01.684Z,7.52
2023-02-21T08:10:29.479Z,7.50
2023-02-21T08:12:56.314Z,7.51
2023-02-21T08:15:23.205Z,7.51
2023-02-21T08:17:51.159Z,7.50
2023-02-21T08:20:18.884Z,7.50
2023-02-21T08:22:46.441Z,7.49
2023-02-21T08:25:15.942Z,7.46
2023-02-21T08:27:44.433Z,7.46
2023-02-21T08:30:16.780Z,7.47
2023-02-21T08:32:43.927Z,7.45
2023-02-21T08:35:18.336Z,7.42
2023-02-21T08:37:48.632Z,7.42
2023-02-21T08:40:19.406Z,7.37
2023-02-21T08:42:51.398Z,7.37
2023-02-21T08:45:22.175Z,7.35
2023-02-21T08:47:50.464Z,7.37
2023-02-21T08:50:20.104Z,7.39
2023-02-21T08:52:48.388Z,7.40
2023-02-21T08:55:16.588Z,7.40
2023-02-21T08:57:43.426Z,7.40
2023-02-21T09:00:13.786Z,7.40
2023-02-21T09:02:40.728Z,7.38
2023-02-21T09:05:19.592Z,7.38
2023-02-21T09:07:50.946Z,7.38
2023-02-21T09:10:18.503Z,7.38
2023-02-21T09:12:45.407Z,7.36
2023-02-21T09:15:15.385Z,7.35
2023-02-21T09:17:42.194Z,7.37
2023-02-21T09:20:13.716Z,7.38
2023-02-21T09:22:45.115Z,7.36
2023-02-21T09:25:13.676Z,7.38
2023-02-21T09:27:41.344Z,7.33
2023-02-21T09:30:21.735Z,7.30
2023-02-21T09:32:48.958Z,7.29
2023-02-21T09:35:16.701Z,7.30
2023-02-21T09:37:45.838Z,7.31
2023-02-21T09:40:34.776Z,7.33
2023-02-21T09:43:05.684Z,7.31
2023-02-21T09:45:36.477Z,7.33
2023-02-21T09:48:13.680Z,7.32
2023-02-21T09:50:48.953Z,7.32
2023-02-21T09:53:24.803Z,7.35
2023-02-21T09:56:00.211Z,7.40
2023-02-21T09:58:27.312Z,7.41
2023-02-21T10:01:06.617Z,7.40
2023-02-21T10:03:57.360Z,7.43
2023-02-21T10:06:42.520Z,7.49
2023-02-21T10:09:44.120Z,7.50
2023-02-21T10:12:24.381Z,7.49
2023-02-21T10:15:40.654Z,7.47
2023-02-21T10:18:41.193Z,7.49
2023-02-21T10:21:47.445Z,7.49
2023-02-21T10:24:24.304Z,7.52
2023-02-21T10:27:09.009Z,7.54
2023-02-21T10:30:10.330Z,7.55
2023-02-21T10:32:38.772Z,7.56
2023-02-21T10:35:06.211Z,7.55
2023-02-21T10:37:45.812Z,7.55
2023-02-21T10:40:46.914Z,7.56
2023-02-21T10:43:45.076Z,7.55
2023-02-21T10:46:29.927Z,7.56
2023-02-21T10:49:28.842Z,7.56
2023-02-21T10:52:17.513Z,7.56
2023-02-21T10:55:31.909Z,7.56
2023-02-21T10:58:09.412Z,7.58
2023-02-21T11:00:48.118Z,7.60
2023-02-21T11:03:18.063Z,7.65
2023-02-21T11:05:57.944Z,7.67
2023-02-21T11:08:53.998Z,7.72
2023-02-21T11:11:37.231Z,7.74
2023-02-21T11:14:26.973Z,7.76
2023-02-21T11:17:23.980Z,7.73
2023-02-21T11:19:56.281Z,7.70
2023-02-21T11:22:25.561Z,7.72
2023-02-21T11:25:08.310Z,7.78
2023-02-21T11:27:37.528Z,7.89
2023-02-21T11:30:18.959Z,7.91
2023-02-21T11:32:58.941Z,7.95
2023-02-21T11:35:44.227Z,7.98
2023-02-21T11:38:40.831Z,8.04
2023-02-21T11:41:23.589Z,8.11
2023-02-21T11:43:53.619Z,8.14
2023-02-21T11:46:40.661Z,8.18
2023-02-21T11:49:14.305Z,8.17
2023-02-21T11:51:58.193Z,8.18
2023-02-21T11:54:30.410Z,8.19
2023-02-21T11:57:06.767Z,8.15
2023-02-21T12:00:09.291Z,8.10
2023-02-21T12:03:01.522Z,8.05
2023-02-21T12:05:44.663Z,8.00
2023-02-21T12:08:39.201Z,8.01
2023-02-21T12:11:31.172Z,8.06
2023-02-21T12:14:49.822Z,8.07
2023-02-21T12:17:38.781Z,8.07
2023-02-21T12:20:18.631Z,8.06
2023-02-21T12:23:22.311Z,8.05
2023-02-21T12:26:30.860Z,8.08
2023-02-21T12:29:28.057Z,8.07
2023-02-21T12:32:27.643Z,8.12
2023-02-21T12:35:40.666Z,8.20
2023-02-21T12:38:31.571Z,8.29
2023-02-21T12:41:45.111Z,8.36
2023-02-21T12:44:24.326Z,8.41
2023-02-21T12:47:13.363Z,8.47
2023-02-21T12:50:01.596Z,8.53
2023-02-21T12:52:40.285Z,8.58
2023-02-21T12:55:12.876Z,8.59
2023-02-21T12:57:56.667Z,8.57
2023-02-21T13:00:31.444Z,8.53
2023-02-21T13:03:20.048Z,8.48
2023-02-21T13:06:02.241Z,8.45
2023-02-21T13:08:37.550Z,8.45
2023-02-21T13:11:35.722Z,8.46
2023-02-21T13:14:10.716Z,8.50
2023-02-21T13:16:37.640Z,8.54
2023-02-21T13:19:11.085Z,8.59
2023-02-21T13:22:07.621Z,8.62
2023-02-21T13:25:13.175Z,8.70
2023-02-21T13:28:03.394Z,8.71
2023-02-21T13:30:33.378Z,8.79
2023-02-21T13:33:02.568Z,8.83
2023-02-21T13:35:39.649Z,8.86
2023-02-21T13:38:11.784Z,8.90
2023-02-21T13:41:10.037Z,8.93
2023-02-21T13:43:48.925Z,8.91
2023-02-21T13:46:30.900Z,8.90
2023-02-21T13:49:42.722Z,8.77
2023-02-21T13:52:29.390Z,8.66
2023-02-21T13:55:21.285Z,8.63
2023-02-21T13:57:54.226Z,8.57
2023-02-21T14:00:27.653Z,8.56
2023-02-21T14:03:24.918Z,8.51
2023-02-21T14:05:51.911Z,8.49
2023-02-21T14:08:41.093Z,8.50
2023-02-21T14:11:07.829Z,8.52
2023-02-21T14:13:55.018Z,8.50
2023-02-21T14:16:46.118Z,8.46
2023-02-21T14:19:25.583Z,8.41
2023-02-21T14:22:13.893Z,8.46
2023-02-21T14:24:48.538Z,8.43
2023-02-21T14:27:15.356Z,8.44
2023-02-21T14:30:01.099Z,8.44
2023-02-21T14:32:49.917Z,8.39
2023-02-21T14:35:16.753Z,8.38
2023-02-21T14:38:04.418Z,8.42
2023-02-21T14:40:34.014Z,8.41
2023-02-21T14:43:32.668Z,8.42
2023-02-21T14:46:41.794Z,8.42
2023-02-21T14:49:17.949Z,8.41
2023-02-21T14:52:25.337Z,8.39
2023-02-21T14:55:35.120Z,8.35
2023-02-21T14:58:32.732Z,8.35
2023-02-21T15:01:16.696Z,8.34
2023-02-21T15:04:02.303Z,8.33
2023-02-21T15:06:31.913Z,8.36
2023-02-21T15:09:13.938Z,8.37
2023-02-21T15:11:41.592Z,8.33
2023-02-21T15:14:25.717Z,8.35
2023-02-21T15:16:58.861Z,8.35
2023-02-21T15:19:35.231Z,8.33
2023-02-21T15:22:25.153Z,8.35
2023-02-21T15:25:10.879Z,8.27
2023-02-21T15:27:51.011Z,8.23
2023-02-21T15:30:31.405Z,8.22
2023-02-21T15:33:21.279Z,8.20
2023-02-21T15:36:00.937Z,8.18
2023-02-21T15:38:39.005Z,8.19
2023-02-21T15:41:22.566Z,8.24
2023-02-21T15:44:24.446Z,8.29
2023-02-21T15:47:04.068Z,8.23
2023-02-21T15:49:40.785Z,8.12
2023-02-21T15:52:07.624Z,8.19
2023-02-21T15:54:39.299Z,8.22
2023-02-21T15:57:12.057Z,8.23
2023-02-21T15:59:40.028Z,8.20
2023-02-21T16:02:22.817Z,8.16
2023-02-21T16:04:52.746Z,8.15
2023-02-21T16:07:35.545Z,8.17
2023-02-21T16:10:11.268Z,8.17
2023-02-21T16:12:45.047Z,8.15
2023-02-21T16:15:17.856Z,8.12
2023-02-21T16:17:52.168Z,8.06
2023-02-21T16:20:26.820Z,7.99
2023-02-21T16:23:20.190Z,7.95
2023-02-21T16:26:09.922Z,7.92
2023-02-21T16:28:39.375Z,7.93
2023-02-21T16:31:29.144Z,7.98
2023-02-21T16:33:56.987Z,7.93
2023-02-21T16:36:28.541Z,7.84
2023-02-21T16:38:57.272Z,7.76
2023-02-21T16:41:25.588Z,7.72
2023-02-21T16:43:52.500Z,7.74
2023-02-21T16:46:30.045Z,7.74
2023-02-21T16:48:59.083Z,7.76
2023-02-21T16:51:33.369Z,7.71
2023-02-21T16:54:00.303Z,7.68
2023-02-21T16:56:27.207Z,7.66
2023-02-21T16:58:57.088Z,7.68
2023-02-21T17:01:27.903Z,7.65
2023-02-21T17:03:56.143Z,7.62
2023-02-21T17:06:27.544Z,7.55
2023-02-21T17:08:54.823Z,7.53
2023-02-21T17:11:21.629Z,7.55
2023-02-21T17:13:48.489Z,7.54
2023-02-21T17:16:15.317Z,7.54
2023-02-21T17:18:44.858Z,7.53
2023-02-21T17:21:12.663Z,7.48
2023-02-21T17:23:39.505Z,7.49
2023-02-21T17:26:06.357Z,7.48
2023-02-21T17:28:34.581Z,7.45
2023-02-21T17:31:01.431Z,7.39
2023-02-21T17:33:28.192Z,7.36
2023-02-21T17:35:55.114Z,7.38
2023-02-21T17:38:21.937Z,7.36
2023-02-21T17:40:49.574Z,7.35
2023-02-21T17:43:16.680Z,7.35
2023-02-21T17:45:45.836Z,7.33
2023-02-21T17:48:12.654Z,7.34
2023-02-21T17:50:39.502Z,7.31
2023-02-21T17:53:06.315Z,7.28
2023-02-21T17:55:33.439Z,7.30
2023-02-21T17:58:00.248Z,7.31
2023-02-21T18:00:29.384Z,7.36
2023-02-21T18:02:56.887Z,7.39
2023-02-21T18:05:24.125Z,7.42
2023-02-21T18:07:53.750Z,7.42
2023-02-21T18:10:24.596Z,7.42
2023-02-21T18:12:52.506Z,7.42
2023-02-21T18:15:28.126Z,7.41
2023-02-21T18:17:55.602Z,7.36
2023-02-21T18:20:22.437Z,7.31
2023-02-21T18:22:49.318Z,7.31
2023-02-21T18:25:18.274Z,7.30
2023-02-21T18:27:45.342Z,7.26
2023-02-21T18:30:12.530Z,7.24
2023-02-21T18:32:39.418Z,7.21
2023-02-21T18:35:06.712Z,7.17
2023-02-21T18:37:33.478Z,7.13
2023-02-21T18:40:00.283Z,7.09
2023-02-21T18:42:27.355Z,7.10
2023-02-21T18:44:54.154Z,7.01
2023-02-21T18:47:21.021Z,7.05
2023-02-21T18:49:48.468Z,7.07
2023-02-21T18:52:16.507Z,7.11
2023-02-21T18:54:49.563Z,7.10
2023-02-21T18:57:20.089Z,7.06
2023-02-21T18:59:46.927Z,7.06
2023-02-21T19:02:17.828Z,7.03
2023-02-21T19:04:45.376Z,6.98
2023-02-21T19:07:18.453Z,6.92
2023-02-21T19:09:48.043Z,6.89
2023-02-21T19:12:14.852Z,6.88
2023-02-21T19:14:42.561Z,6.90
2023-02-21T19:17:10.532Z,6.96
2023-02-21T19:19:38.817Z,7.01
2023-02-21T19:22:06.592Z,7.04
2023-02-21T19:24:33.588Z,7.02
2023-02-21T19:27:01.842Z,7.01
2023-02-21T19:29:28.882Z,7.04
2023-02-21T19:31:56.287Z,6.96
2023-02-21T19:34:23.298Z,6.94
2023-02-21T19:36:50.556Z,6.97
2023-02-21T19:39:17.677Z,7.02
2023-02-21T19:41:45.776Z,7.00
2023-02-21T19:44:13.062Z,6.97
2023-02-21T19:46:40.146Z,6.92
2023-02-21T19:49:18.002Z,6.87
2023-02-21T19:51:48.044Z,6.82
2023-02-21T19:54:17.810Z,6.77
2023-02-21T19:56:45.057Z,6.71
2023-02-21T19:59:12.682Z,6.70
2023-02-21T20:01:40.255Z,6.68
2023-02-21T20:04:07.823Z,6.69
2023-02-21T20:06:37.403Z,6.76
2023-02-21T20:09:08.302Z,6.76
2023-02-21T20:11:36.093Z,6.68
2023-02-21T20:14:08.042Z,6.68
2023-02-21T20:16:43.717Z,6.67
2023-02-21T20:19:12.839Z,6.67
2023-02-21T20:21:40.449Z,6.67
2023-02-21T20:24:07.660Z,6.71
2023-02-21T20:26:34.978Z,6.70
2023-02-21T20:29:01.860Z,6.71
2023-02-21T20:31:32.653Z,6.73
2023-02-21T20:34:03.435Z,6.73
2023-02-21T20:36:38.712Z,6.72
2023-02-21T20:39:18.604Z,6.72
2023-02-21T20:41:46.227Z,6.79
2023-02-21T20:44:14.533Z,6.77
2023-02-21T20:46:41.963Z,6.80
2023-02-21T20:49:14.194Z,6.81
2023-02-21T20:51:43.375Z,6.88
2023-02-21T20:54:19.724Z,6.92
2023-02-21T20:56:52.135Z,6.91
2023-02-21T20:59:30.367Z,6.89
2023-02-21T21:01:58.449Z,6.80
2023-02-21T21:04:42.927Z,6.81
2023-02-21T21:07:16.107Z,6.79
2023-02-21T21:09:44.525Z,6.71
2023-02-21T21:12:17.238Z,6.79
2023-02-21T21:14:47.369Z,6.84
2023-02-21T21:17:18.546Z,6.75
2023-02-21T21:19:48.311Z,6.69
2023-02-21T21:22:20.597Z,6.70
2023-02-21T21:24:47.778Z,6.63
2023-02-21T21:27:15.419Z,6.53
2023-02-21T21:29:45.834Z,6.53
2023-02-21T21:32:19.753Z,6.58
2023-02-21T21:34:54.050Z,6.66
2023-02-21T21:37:26.604Z,6.73
2023-02-21T21:39:55.883Z,6.70
2023-02-21T21:42:27.278Z,6.61
2023-02-21T21:44:56.341Z,6.64
2023-02-21T21:47:32.078Z,6.65
2023-02-21T21:49:59.528Z,6.62
2023-02-21T21:52:26.318Z,6.63
2023-02-21T21:54:53.156Z,6.64
2023-02-21T21:57:22.760Z,6.62
2023-02-21T21:59:50.544Z,6.61
2023-02-21T22:02:17.567Z,6.53
2023-02-21T22:04:45.427Z,6.50
2023-02-21T22:07:15.115Z,6.44
2023-02-21T22:09:41.953Z,6.39
2023-02-21T22:12:08.943Z,6.36
2023-02-21T22:14:35.926Z,6.35
2023-02-21T22:17:05.351Z,6.39
2023-02-21T22:19:34.585Z,6.38
2023-02-21T22:22:05.430Z,6.34
2023-02-21T22:24:33.665Z,6.33
2023-02-21T22:27:00.490Z,6.33
2023-02-21T22:29:27.401Z,6.32
2023-02-21T22:31:54.224Z,6.34
2023-02-21T22:34:24.227Z,6.36
2023-02-21T22:36:57.411Z,6.29
2023-02-21T22:39:26.015Z,6.27
2023-02-21T22:41:54.261Z,6.27
2023-02-21T22:44:24.737Z,6.25
2023-02-21T22:46:58.450Z,6.20
2023-02-21T22:49:30.679Z,6.14
2023-02-21T22:51:57.914Z,6.09
2023-02-21T22:54:26.197Z,6.07
2023-02-21T22:56:54.772Z,6.08
2023-02-21T22:59:24.358Z,6.10
2023-02-21T23:01:51.452Z,6.13
2023-02-21T23:04:26.019Z,6.14
2023-02-21T23:07:02.757Z,6.23
2023-02-21T23:09:31.070Z,6.22
2023-02-21T23:12:00.578Z,6.10
2023-02-21T23:14:31.461Z,6.04
2023-02-21T23:16:59.293Z,6.04
2023-02-21T23:19:30.236Z,6.02
2023-02-21T23:21:57.865Z,6.01
2023-02-21T23:24:25.299Z,6.00
2023-02-21T23:26:54.660Z,5.97
2023-02-21T23:29:25.994Z,6.00
2023-02-21T23:31:57.769Z,6.08
2023-02-21T23:34:39.894Z,6.07
2023-02-21T23:37:09.088Z,5.98
2023-02-21T23:39:36.072Z,5.90
2023-02-21T23:42:03.686Z,5.86
2023-02-21T23:44:30.490Z,5.87
2023-02-21T23:46:59.367Z,5.90
2023-02-21T23:49:26.173Z,5.92
2023-02-21T23:51:53.700Z,5.90
2023-02-21T23:54:21.146Z,5.94
2023-02-21T23:56:49.215Z,5.89
2023-02-21T23:59:16.632Z,5.87
